• Join FlightAware (Why Join?)
  • Login
  • US Flag 
08:05AM EDT


 

Airport Tracker/Info


-or-


 

Live Flight TrackerFlight Track Log ✈ DAL1029 ✈ 18-Jul-2013 ✈ KMSP - KATL

Flight Track Log - Related Links

Times and Time Zones

All times are in EDT time to prevent confusion due to time zone crossing. See the DAL1029 flight status page for this flight to view local times or setup timezone preferences in your user account.

Time Position Orientation Groundspeed Altitude Reporting Facility
EDT Latitude Longitude Course Direction KTS MPH feet Rate Location/Type
11:41AM 44.8333 -93.2333 120° Southeast 170 196 2,400  Level Minneapolis TRACON
11:42AM 44.7503 -93.2264 177° South 249 287 5,600 2,520 Climbing Minneapolis Center
11:43AM 44.5973 -92.9515 145° Southeast  Level Estimated
11:43AM 44.6786 -93.2158 174° South 267 307 8,800  Level Minneapolis Center
11:44AM 44.5022 -92.8620 137° Southeast  Level Estimated
11:44AM 44.6103 -93.1456 144° Southeast 311 358 11,000  Level Minneapolis Center
11:45AM 44.4071 -92.7728 115° Southeast  Level Estimated
11:45AM 44.5592 -93.0178 119° Southeast 387 445 12,600  Level Minneapolis Center
11:46AM 44.3119 -92.6839 120° Southeast  Level Estimated
11:46AM 44.4967 -92.8514 118° Southeast 402 463 16,400  Level Minneapolis Center
11:47AM 44.4447 -92.7186 119° Southeast 393 452 18,700 2,040 Climbing Minneapolis Center
11:48AM 44.3911 -92.5783 118° Southeast 406 467 20,700 1,800 Climbing Minneapolis Center
11:49AM 44.3350 -92.4347 119° Southeast 420 483 22,500 1,680 Climbing Minneapolis Center
11:50AM 44.2728 -92.2914 121° Southeast 432 497 24,300 1,800 Climbing Minneapolis Center
11:51AM 44.1956 -92.1158 121° Southeast 443 510 26,300 1,260 Climbing Minneapolis Center
11:53AM 44.1292 -91.9633 121° Southeast 457 526 27,000 780 Climbing Minneapolis Center
11:54AM 44.0589 -91.8017 121° Southeast 481 554 28,000 960 Climbing Minneapolis Center
11:55AM 43.9928 -91.6517 121° Southeast 494 568 29,100 1,500 Climbing Minneapolis Center
11:56AM 43.9047 -91.4578 122° Southeast 498 573 31,200 1,740 Climbing Minneapolis Center
11:58AM 43.7169 -91.1944 135° Southeast 482 555 34,500 1,440 Climbing Chicago Center
11:59AM 43.6250 -91.0656 135° Southeast 477 549 35,700 1,140 Climbing Minneapolis Center
12:00PM 43.5319 -90.9372 135° Southeast 475 547 36,900 600 Climbing Chicago Center
12:01PM 43.4211 -90.7825 135° Southeast 475 547 37,000  Climbing Minneapolis Center
12:02PM 43.3306 -90.6583 135° Southeast 469 540 37,000  Level Chicago Center
12:03PM 43.2383 -90.5331 135° Southeast 468 539 37,000  Level Chicago Center
12:04PM 43.1453 -90.4069 135° Southeast 471 542 37,000  Level Chicago Center
12:05PM 43.0522 -90.2817 135° Southeast 471 542 37,000  Level Chicago Center
12:06PM 42.9583 -90.1567 136° Southeast 472 543 37,000  Level Chicago Center
12:07PM 42.8469 -90.0075 136° Southeast 472 543 37,000  Level Chicago Center
12:08PM 42.7378 -89.9256 151° Southeast 459 528 37,000  Level Chicago Center
12:09PM 42.6086 -89.8994 172° South 462 532 37,000  Level Chicago Center
12:11PM 42.4014 -89.8561 171° South 468 539 37,000  Level Kansas City Center
12:12PM 42.2728 -89.8258 170° South 469 540 37,000  Level Kansas City Center
12:13PM 42.1431 -89.7992 171° South 470 541 37,000  Level Kansas City Center
12:14PM 42.0136 -89.7700 170° South 470 541 37,000  Level Kansas City Center
12:15PM 41.8844 -89.7422 171° South 471 542 37,000  Level Kansas City Center
12:16PM 41.7297 -89.7092 171° South 470 541 37,000  Level Kansas City Center
12:17PM 41.6017 -89.6831 171° South 467 537 37,000  Level Kansas City Center
12:18PM 41.4728 -89.6542 170° South 468 539 37,000  Level Kansas City Center
12:19PM 41.3447 -89.6269 171° South 466 536 37,000  Level Kansas City Center
12:20PM 41.2167 -89.5994 171° South 465 535 37,000  Level Kansas City Center
12:21PM 41.0889 -89.5733 171° South 464 534 37,000  Level Kansas City Center
12:22PM 40.9603 -89.5531 173° South 463 533 37,000  Level Kansas City Center
12:23PM 40.8033 -89.5267 173° South 465 535 37,000  Level Kansas City Center
12:24PM 40.6708 -89.5053 173° South 469 540 37,000  Level Kansas City Center
12:25PM 40.5403 -89.4844 173° South 467 537 37,000  Level Kansas City Center
12:26PM 40.4108 -89.4650 173° South 465 535 37,000  Level Kansas City Center
12:27PM 40.2819 -89.4450 173° South 463 533 37,000  Level Kansas City Center
12:28PM 40.1536 -89.4233 173° South 464 534 37,000  Level Kansas City Center
12:29PM 40.0250 -89.4050 174° South 463 533 37,000  Level Kansas City Center
12:30PM 39.8969 -89.3836 173° South 462 532 37,000  Level Kansas City Center
12:31PM 39.7442 -89.3594 173° South 461 531 37,000  Level Kansas City Center
12:32PM 39.6250 -89.3414 173° South 462 532 37,000  Level Kansas City Center
12:33PM 39.4983 -89.3206 173° South 460 529 37,000  Level Kansas City Center
12:34PM 39.3711 -89.3031 174° South 459 528 37,000  Level Kansas City Center
12:35PM 39.2175 -89.2789 173° South 461 531 37,000  Level Kansas City Center
12:36PM 39.0864 -89.2597 174° South 454 522 37,000  Level Kansas City Center
12:38PM 38.9600 -89.2392 173° South 456 525 37,000  Level Kansas City Center
12:39PM 38.8242 -89.2192 173° South 457 526 37,000  Level Kansas City Center
12:40PM 38.6986 -89.1992 173° South 455 524 37,000  Level Kansas City Center
12:41PM 38.5736 -89.1811 174° South 453 521 37,000  Level Kansas City Center
12:42PM 38.4392 -89.1600 173° South 451 519 37,000  Level Kansas City Center
12:43PM 38.3164 -89.1250 167° South 453 521 37,000  Level Kansas City Center
12:44PM 38.1858 -89.0831 166° South 451 519 37,000  Level Kansas City Center
12:45PM 38.0642 -89.0442 166° South 451 519 37,000  Level Kansas City Center
12:46PM 37.9469 -89.0064 166° South 457 526 37,000  Level Kansas City Center
12:47PM 37.8450 -88.9172 145° Southeast 462 532 37,000  Level Kansas City Center
12:48PM 37.7600 -88.7764 127° Southeast 451 519 37,000  Level Kansas City Center
12:49PM 37.6711 -88.6417 130° Southeast 449 517 37,000  Level Kansas City Center
12:50PM 37.5975 -88.5300 130° Southeast 454 522 37,000  Level Memphis Center
12:51PM 37.5167 -88.4117 131° Southeast 459 528 37,000  Level Memphis Center
12:52PM 37.4397 -88.2883 128° Southeast 454 522 37,000  Level Memphis Center
12:53PM 37.3667 -88.1647 127° Southeast 449 517 37,000  Level Memphis Center
12:54PM 37.2978 -88.0417 125° Southeast 439 505 37,000  Level Memphis Center
12:55PM 37.2178 -87.8956 124° Southeast 451 519 37,000  Level Memphis Center
12:56PM 37.1425 -87.7728 128° Southeast 451 519 37,000  Level Memphis Center
12:57PM 37.0547 -87.6639 135° Southeast 451 519 37,000  Level Memphis Center
12:58PM 36.9608 -87.5608 139° Southeast 445 512 37,000 -120 Level Memphis Center
12:59PM 36.8753 -87.4731 141° Southeast 445 512 36,800 -840 Descending Memphis Center
01:00PM 36.7753 -87.3806 143° Southeast 445 512 35,400 -900 Descending Memphis Center
01:01PM 36.6750 -87.2886 144° Southeast 445 512 35,000 -240 Descending Memphis Center
01:02PM 36.5725 -87.1917 143° Southeast 445 512 35,000 -180 Level Memphis Center
01:03PM 36.4744 -87.1028 144° Southeast 445 512 34,700 -780 Descending Memphis Center
01:04PM 36.3719 -87.0142 145° Southeast 445 512 33,500 -900 Descending Memphis Center
01:05PM 36.2583 -86.9003 141° Southeast 455 524 33,000 -300 Descending Memphis Center
01:06PM 36.1622 -86.8194 146° Southeast 476 548 33,000  Level Memphis Center
01:07PM 36.0614 -86.7239 143° Southeast 465 535 33,000  Level Memphis Center
01:09PM 35.8578 -86.5369 143° Southeast 464 534 33,000  Level Atlanta Center
01:10PM 35.7533 -86.4414 143° Southeast 470 541 33,000  Level Atlanta Center
01:11PM 35.6486 -86.3464 144° Southeast 470 541 33,000  Level Atlanta Center
01:12PM 35.5358 -86.2439 144° Southeast 470 541 33,000  Level Atlanta Center
01:13PM 35.4289 -86.1517 145° Southeast 470 541 33,000  Level Atlanta Center
01:14PM 35.3283 -86.0600 143° Southeast 470 541 33,000  Level Atlanta Center
01:15PM 35.2253 -85.9686 144° Southeast 465 535 33,000  Level Atlanta Center
01:16PM 35.1286 -85.8800 143° Southeast 460 529 33,000  Level Atlanta Center
01:17PM 35.0236 -85.7939 146° Southeast 455 524 33,000 -480 Level Atlanta Center
01:18PM 34.9183 -85.7081 146° Southeast 450 518 32,100 -1,740 Descending Atlanta Center
01:19PM 34.8131 -85.6275 148° Southeast 450 518 29,600 -2,400 Descending Atlanta Center
01:20PM 34.7117 -85.5500 148° Southeast 450 518 27,300 -2,400 Descending Atlanta Center
01:21PM 34.6103 -85.4722 148° Southeast 445 512 24,800 -2,460 Descending Atlanta Center
01:22PM 34.5153 -85.3925 145° Southeast 429 494 22,400 -2,400 Descending Atlanta Center
01:23PM 34.4158 -85.3206 149° Southeast 429 494 20,000 -2,340 Descending Atlanta Center
01:24PM 34.3308 -85.2514 146° Southeast 416 479 17,800 -2,280 Descending Atlanta Center
01:25PM 34.2419 -85.1822 147° Southeast 398 458 15,500 -2,100 Descending Atlanta Center
01:26PM 34.1550 -85.1081 145° Southeast 387 445 13,600 -1,200 Descending Atlanta Center
01:27PM 34.0847 -85.0219 135° Southeast 353 406 13,100 -600 Descending Atlanta Center
01:28PM 34.0161 -84.9736 150° Southeast 306 352 12,400 -1,200 Descending Atlanta Center
01:29PM 33.9350 -84.9553 169° South 279 321 10,800 -1,500 Descending Atlanta Center
01:30PM 33.8556 -84.9394 171° South 285 328 9,500 -1,080 Descending Atlanta Center
01:31PM 33.7764 -84.9311 175° South 290 334 8,700 -1,140 Descending Atlanta Center
01:32PM 33.6992 -84.9228 175° South 290 334 7,300 -840 Descending Atlanta Center
01:33PM 33.6411 -84.8897 155° Southeast 246 283 7,100 -240 Descending Atlanta Center
01:34PM 33.6333 -84.8333 99° East 224 258 6,900 -960 Descending Atlanta TRACON
01:35PM 33.6333 -84.7333 90° East 223 257 5,300 -1,200 Descending Atlanta TRACON
01:36PM 33.6333 -84.6667 90° East 223 257 4,500 -900 Descending Atlanta TRACON